sensor_id;sensor_type;location;lat;lon;timestamp;P1;durP1;ratioP1;P2;durP2;ratioP2
5199;SDS011;2619;47.868;11.892;2023-05-16T00:00:14;5.00;;;3.37;;
5199;SDS011;2619;47.868;11.892;2023-05-16T00:02:40;5.33;;;3.93;;
5199;SDS011;2619;47.868;11.892;2023-05-16T00:05:06;4.60;;;3.50;;
5199;SDS011;2619;47.868;11.892;2023-05-16T00:07:32;5.53;;;3.83;;
5199;SDS011;2619;47.868;11.892;2023-05-16T00:09:58;5.63;;;4.30;;
5199;SDS011;2619;47.868;11.892;2023-05-16T00:12:24;6.80;;;4.87;;
5199;SDS011;2619;47.868;11.892;2023-05-16T00:14:50;6.80;;;4.83;;
5199;SDS011;2619;47.868;11.892;2023-05-16T00:17:16;7.20;;;4.90;;
5199;SDS011;2619;47.868;11.892;2023-05-16T00:19:44;9.83;;;5.20;;
5199;SDS011;2619;47.868;11.892;2023-05-16T00:22:13;7.10;;;4.50;;
5199;SDS011;2619;47.868;11.892;2023-05-16T00:24:39;5.30;;;4.10;;
5199;SDS011;2619;47.868;11.892;2023-05-16T00:27:05;5.90;;;4.87;;
5199;SDS011;2619;47.868;11.892;2023-05-16T00:29:32;7.67;;;4.83;;
5199;SDS011;2619;47.868;11.892;2023-05-16T00:31:58;13.57;;;4.33;;
5199;SDS011;2619;47.868;11.892;2023-05-16T00:34:24;13.30;;;5.57;;
5199;SDS011;2619;47.868;11.892;2023-05-16T00:36:49;9.20;;;4.97;;
5199;SDS011;2619;47.868;11.892;2023-05-16T00:39:15;7.70;;;5.93;;
5199;SDS011;2619;47.868;11.892;2023-05-16T00:41:41;6.57;;;4.90;;
5199;SDS011;2619;47.868;11.892;2023-05-16T00:44:06;11.23;;;5.23;;
5199;SDS011;2619;47.868;11.892;2023-05-16T00:46:32;6.73;;;4.63;;
5199;SDS011;2619;47.868;11.892;2023-05-16T00:48:59;8.13;;;6.33;;
5199;SDS011;2619;47.868;11.892;2023-05-16T00:51:25;7.13;;;4.77;;
5199;SDS011;2619;47.868;11.892;2023-05-16T00:53:50;6.70;;;4.37;;
5199;SDS011;2619;47.868;11.892;2023-05-16T00:56:16;7.50;;;4.63;;
5199;SDS011;2619;47.868;11.892;2023-05-16T00:58:42;8.47;;;5.70;;
5199;SDS011;2619;47.868;11.892;2023-05-16T01:01:08;7.93;;;5.60;;
5199;SDS011;2619;47.868;11.892;2023-05-16T01:03:33;6.90;;;4.80;;
5199;SDS011;2619;47.868;11.892;2023-05-16T01:05:59;8.23;;;4.73;;
5199;SDS011;2619;47.868;11.892;2023-05-16T01:08:25;7.77;;;4.90;;
5199;SDS011;2619;47.868;11.892;2023-05-16T01:10:58;6.83;;;4.97;;
5199;SDS011;2619;47.868;11.892;2023-05-16T01:16:16;7.00;;;4.93;;
5199;SDS011;2619;47.868;11.892;2023-05-16T01:21:18;7.50;;;5.20;;
5199;SDS011;2619;47.868;11.892;2023-05-16T01:24:13;10.67;;;5.63;;
5199;SDS011;2619;47.868;11.892;2023-05-16T01:26:46;16.10;;;5.37;;
5199;SDS011;2619;47.868;11.892;2023-05-16T01:29:13;9.47;;;5.70;;
5199;SDS011;2619;47.868;11.892;2023-05-16T01:31:39;10.40;;;6.20;;
5199;SDS011;2619;47.868;11.892;2023-05-16T01:34:05;5.50;;;4.17;;
5199;SDS011;2619;47.868;11.892;2023-05-16T01:39:32;8.73;;;5.23;;
5199;SDS011;2619;47.868;11.892;2023-05-16T01:42:11;6.53;;;4.97;;
5199;SDS011;2619;47.868;11.892;2023-05-16T01:44:45;6.20;;;4.80;;
5199;SDS011;2619;47.868;11.892;2023-05-16T01:47:19;6.27;;;4.97;;
5199;SDS011;2619;47.868;11.892;2023-05-16T01:52:44;11.37;;;7.07;;
5199;SDS011;2619;47.868;11.892;2023-05-16T01:55:15;15.43;;;4.40;;
5199;SDS011;2619;47.868;11.892;2023-05-16T01:57:48;29.50;;;6.37;;
5199;SDS011;2619;47.868;11.892;2023-05-16T02:00:14;6.00;;;4.70;;
5199;SDS011;2619;47.868;11.892;2023-05-16T02:02:40;10.43;;;4.30;;
5199;SDS011;2619;47.868;11.892;2023-05-16T02:05:05;13.10;;;5.53;;
5199;SDS011;2619;47.868;11.892;2023-05-16T02:07:32;11.20;;;4.83;;
5199;SDS011;2619;47.868;11.892;2023-05-16T02:09:58;19.40;;;5.80;;
5199;SDS011;2619;47.868;11.892;2023-05-16T02:12:23;10.60;;;5.17;;
5199;SDS011;2619;47.868;11.892;2023-05-16T02:14:49;7.07;;;4.57;;
5199;SDS011;2619;47.868;11.892;2023-05-16T02:17:15;15.93;;;5.40;;
5199;SDS011;2619;47.868;11.892;2023-05-16T02:19:40;11.63;;;5.10;;
5199;SDS011;2619;47.868;11.892;2023-05-16T02:22:06;7.37;;;5.13;;
5199;SDS011;2619;47.868;11.892;2023-05-16T02:24:31;8.27;;;4.97;;
5199;SDS011;2619;47.868;11.892;2023-05-16T02:26:57;7.27;;;5.23;;
5199;SDS011;2619;47.868;11.892;2023-05-16T02:29:22;8.50;;;6.17;;
5199;SDS011;2619;47.868;11.892;2023-05-16T02:31:48;6.77;;;5.20;;
5199;SDS011;2619;47.868;11.892;2023-05-16T02:34:14;9.63;;;5.87;;
5199;SDS011;2619;47.868;11.892;2023-05-16T02:36:40;7.03;;;5.33;;
5199;SDS011;2619;47.868;11.892;2023-05-16T02:39:06;10.07;;;5.77;;
5199;SDS011;2619;47.868;11.892;2023-05-16T02:41:34;16.67;;;6.10;;
5199;SDS011;2619;47.868;11.892;2023-05-16T02:43:59;10.60;;;5.10;;
5199;SDS011;2619;47.868;11.892;2023-05-16T02:46:26;17.73;;;6.10;;
5199;SDS011;2619;47.868;11.892;2023-05-16T02:48:58;9.53;;;4.60;;
5199;SDS011;2619;47.868;11.892;2023-05-16T02:51:25;11.70;;;5.37;;
5199;SDS011;2619;47.868;11.892;2023-05-16T02:53:51;12.73;;;5.10;;
5199;SDS011;2619;47.868;11.892;2023-05-16T02:56:17;6.83;;;4.93;;
5199;SDS011;2619;47.868;11.892;2023-05-16T02:58:45;14.13;;;4.50;;
5199;SDS011;2619;47.868;11.892;2023-05-16T03:01:12;6.90;;;4.90;;
5199;SDS011;2619;47.868;11.892;2023-05-16T03:03:38;10.27;;;5.10;;
5199;SDS011;2619;47.868;11.892;2023-05-16T03:06:03;13.10;;;6.23;;
5199;SDS011;2619;47.868;11.892;2023-05-16T03:08:30;12.13;;;6.50;;
5199;SDS011;2619;47.868;11.892;2023-05-16T03:10:56;14.07;;;5.57;;
5199;SDS011;2619;47.868;11.892;2023-05-16T03:13:21;9.93;;;5.23;;
5199;SDS011;2619;47.868;11.892;2023-05-16T03:15:47;10.33;;;5.50;;
5199;SDS011;2619;47.868;11.892;2023-05-16T03:18:13;7.33;;;5.20;;
5199;SDS011;2619;47.868;11.892;2023-05-16T03:20:39;8.20;;;6.00;;
5199;SDS011;2619;47.868;11.892;2023-05-16T03:23:04;10.30;;;6.47;;
5199;SDS011;2619;47.868;11.892;2023-05-16T03:25:32;6.10;;;4.87;;
5199;SDS011;2619;47.868;11.892;2023-05-16T03:27:58;9.53;;;6.27;;
5199;SDS011;2619;47.868;11.892;2023-05-16T03:30:24;7.43;;;5.43;;
5199;SDS011;2619;47.868;11.892;2023-05-16T03:32:50;6.80;;;4.80;;
5199;SDS011;2619;47.868;11.892;2023-05-16T03:35:16;7.80;;;6.10;;
5199;SDS011;2619;47.868;11.892;2023-05-16T03:37:42;12.30;;;5.70;;
5199;SDS011;2619;47.868;11.892;2023-05-16T03:40:08;12.40;;;6.73;;
5199;SDS011;2619;47.868;11.892;2023-05-16T03:42:35;8.20;;;5.77;;
5199;SDS011;2619;47.868;11.892;2023-05-16T03:45:00;9.47;;;5.80;;
5199;SDS011;2619;47.868;11.892;2023-05-16T03:47:26;7.77;;;5.87;;
5199;SDS011;2619;47.868;11.892;2023-05-16T03:49:55;9.67;;;5.70;;
5199;SDS011;2619;47.868;11.892;2023-05-16T03:52:20;8.53;;;5.93;;
5199;SDS011;2619;47.868;11.892;2023-05-16T03:54:46;9.70;;;6.83;;
5199;SDS011;2619;47.868;11.892;2023-05-16T03:57:12;14.73;;;7.17;;
5199;SDS011;2619;47.868;11.892;2023-05-16T03:59:37;22.00;;;7.43;;
5199;SDS011;2619;47.868;11.892;2023-05-16T04:02:03;16.87;;;7.73;;
5199;SDS011;2619;47.868;11.892;2023-05-16T04:04:29;16.40;;;6.80;;
5199;SDS011;2619;47.868;11.892;2023-05-16T04:06:55;12.13;;;6.20;;
5199;SDS011;2619;47.868;11.892;2023-05-16T04:09:21;15.00;;;6.50;;
5199;SDS011;2619;47.868;11.892;2023-05-16T04:11:46;12.30;;;7.30;;
5199;SDS011;2619;47.868;11.892;2023-05-16T04:14:12;9.23;;;6.07;;
5199;SDS011;2619;47.868;11.892;2023-05-16T04:16:39;11.67;;;7.03;;
5199;SDS011;2619;47.868;11.892;2023-05-16T04:19:05;15.97;;;6.83;;
5199;SDS011;2619;47.868;11.892;2023-05-16T04:21:31;9.67;;;6.80;;
5199;SDS011;2619;47.868;11.892;2023-05-16T04:23:57;8.80;;;6.60;;
5199;SDS011;2619;47.868;11.892;2023-05-16T04:26:22;15.60;;;7.40;;
5199;SDS011;2619;47.868;11.892;2023-05-16T04:28:48;14.60;;;7.57;;
5199;SDS011;2619;47.868;11.892;2023-05-16T04:31:14;12.63;;;7.37;;
5199;SDS011;2619;47.868;11.892;2023-05-16T04:33:40;8.60;;;6.60;;
5199;SDS011;2619;47.868;11.892;2023-05-16T04:36:06;15.90;;;8.13;;
5199;SDS011;2619;47.868;11.892;2023-05-16T04:38:32;19.53;;;8.00;;
5199;SDS011;2619;47.868;11.892;2023-05-16T04:40:57;15.37;;;7.47;;
5199;SDS011;2619;47.868;11.892;2023-05-16T04:43:23;13.73;;;8.27;;
5199;SDS011;2619;47.868;11.892;2023-05-16T04:45:50;10.80;;;7.10;;
5199;SDS011;2619;47.868;11.892;2023-05-16T04:48:17;16.20;;;8.97;;
5199;SDS011;2619;47.868;11.892;2023-05-16T04:50:43;12.73;;;8.30;;
5199;SDS011;2619;47.868;11.892;2023-05-16T04:53:10;14.60;;;8.50;;
5199;SDS011;2619;47.868;11.892;2023-05-16T04:55:35;12.60;;;7.47;;
5199;SDS011;2619;47.868;11.892;2023-05-16T04:58:01;11.67;;;8.30;;
5199;SDS011;2619;47.868;11.892;2023-05-16T05:00:27;17.83;;;8.97;;
5199;SDS011;2619;47.868;11.892;2023-05-16T05:02:52;15.97;;;8.90;;
5199;SDS011;2619;47.868;11.892;2023-05-16T05:05:18;14.27;;;8.60;;
5199;SDS011;2619;47.868;11.892;2023-05-16T05:07:44;25.63;;;9.47;;
5199;SDS011;2619;47.868;11.892;2023-05-16T05:10:10;22.70;;;10.33;;
5199;SDS011;2619;47.868;11.892;2023-05-16T05:12:36;17.13;;;10.60;;
5199;SDS011;2619;47.868;11.892;2023-05-16T05:15:02;34.53;;;11.57;;
5199;SDS011;2619;47.868;11.892;2023-05-16T05:17:28;12.83;;;9.27;;
5199;SDS011;2619;47.868;11.892;2023-05-16T05:19:54;12.60;;;9.40;;
5199;SDS011;2619;47.868;11.892;2023-05-16T05:22:19;19.73;;;10.37;;
5199;SDS011;2619;47.868;11.892;2023-05-16T05:24:45;22.87;;;11.43;;
5199;SDS011;2619;47.868;11.892;2023-05-16T05:27:10;19.60;;;9.20;;
5199;SDS011;2619;47.868;11.892;2023-05-16T05:29:36;23.60;;;10.53;;
5199;SDS011;2619;47.868;11.892;2023-05-16T05:32:02;22.37;;;9.10;;
5199;SDS011;2619;47.868;11.892;2023-05-16T05:34:27;12.57;;;8.80;;
5199;SDS011;2619;47.868;11.892;2023-05-16T05:36:53;18.80;;;9.37;;
5199;SDS011;2619;47.868;11.892;2023-05-16T05:39:19;13.73;;;10.17;;
5199;SDS011;2619;47.868;11.892;2023-05-16T05:41:44;15.80;;;10.50;;
5199;SDS011;2619;47.868;11.892;2023-05-16T05:44:10;17.20;;;10.57;;
5199;SDS011;2619;47.868;11.892;2023-05-16T05:46:35;14.77;;;9.90;;
5199;SDS011;2619;47.868;11.892;2023-05-16T05:49:01;21.77;;;10.20;;
5199;SDS011;2619;47.868;11.892;2023-05-16T05:51:27;16.53;;;10.70;;
5199;SDS011;2619;47.868;11.892;2023-05-16T05:53:53;15.57;;;10.57;;
5199;SDS011;2619;47.868;11.892;2023-05-16T05:56:19;14.60;;;10.10;;
5199;SDS011;2619;47.868;11.892;2023-05-16T05:58:45;12.13;;;9.80;;
5199;SDS011;2619;47.868;11.892;2023-05-16T06:01:10;14.20;;;10.13;;
5199;SDS011;2619;47.868;11.892;2023-05-16T06:03:36;15.73;;;9.90;;
5199;SDS011;2619;47.868;11.892;2023-05-16T06:06:02;15.13;;;10.23;;
5199;SDS011;2619;47.868;11.892;2023-05-16T06:08:28;13.63;;;10.40;;
5199;SDS011;2619;47.868;11.892;2023-05-16T06:10:54;16.63;;;9.50;;
5199;SDS011;2619;47.868;11.892;2023-05-16T06:13:19;13.33;;;9.03;;
5199;SDS011;2619;47.868;11.892;2023-05-16T06:15:49;12.90;;;9.03;;
5199;SDS011;2619;47.868;11.892;2023-05-16T06:18:18;18.00;;;9.67;;
5199;SDS011;2619;47.868;11.892;2023-05-16T06:20:44;14.70;;;8.70;;
5199;SDS011;2619;47.868;11.892;2023-05-16T06:23:10;15.63;;;8.13;;
5199;SDS011;2619;47.868;11.892;2023-05-16T06:25:36;20.53;;;8.87;;
5199;SDS011;2619;47.868;11.892;2023-05-16T06:28:01;15.33;;;8.63;;
5199;SDS011;2619;47.868;11.892;2023-05-16T06:30:27;9.47;;;7.27;;
5199;SDS011;2619;47.868;11.892;2023-05-16T06:32:52;10.00;;;7.23;;
5199;SDS011;2619;47.868;11.892;2023-05-16T06:35:18;11.03;;;7.07;;
5199;SDS011;2619;47.868;11.892;2023-05-16T06:37:44;12.73;;;7.20;;
5199;SDS011;2619;47.868;11.892;2023-05-16T06:40:09;9.67;;;7.40;;
5199;SDS011;2619;47.868;11.892;2023-05-16T06:42:35;12.00;;;7.60;;
5199;SDS011;2619;47.868;11.892;2023-05-16T06:45:01;13.40;;;7.13;;
5199;SDS011;2619;47.868;11.892;2023-05-16T06:47:27;10.53;;;7.73;;
5199;SDS011;2619;47.868;11.892;2023-05-16T06:49:52;12.50;;;8.37;;
5199;SDS011;2619;47.868;11.892;2023-05-16T06:52:18;9.60;;;8.03;;
5199;SDS011;2619;47.868;11.892;2023-05-16T06:54:43;15.27;;;8.47;;
5199;SDS011;2619;47.868;11.892;2023-05-16T06:57:09;9.40;;;7.80;;
5199;SDS011;2619;47.868;11.892;2023-05-16T06:59:35;11.73;;;9.10;;
5199;SDS011;2619;47.868;11.892;2023-05-16T07:02:00;12.53;;;8.93;;
5199;SDS011;2619;47.868;11.892;2023-05-16T07:04:26;11.97;;;8.30;;
5199;SDS011;2619;47.868;11.892;2023-05-16T07:06:52;15.90;;;8.90;;
5199;SDS011;2619;47.868;11.892;2023-05-16T07:09:18;12.43;;;9.60;;
5199;SDS011;2619;47.868;11.892;2023-05-16T07:11:44;14.17;;;8.40;;
5199;SDS011;2619;47.868;11.892;2023-05-16T07:14:10;13.33;;;9.27;;
5199;SDS011;2619;47.868;11.892;2023-05-16T07:16:36;12.83;;;9.60;;
5199;SDS011;2619;47.868;11.892;2023-05-16T07:19:01;15.67;;;9.23;;
5199;SDS011;2619;47.868;11.892;2023-05-16T07:21:27;14.77;;;7.93;;
5199;SDS011;2619;47.868;11.892;2023-05-16T07:23:53;11.47;;;9.03;;
5199;SDS011;2619;47.868;11.892;2023-05-16T07:26:18;11.60;;;8.97;;
5199;SDS011;2619;47.868;11.892;2023-05-16T07:28:47;16.90;;;8.50;;
5199;SDS011;2619;47.868;11.892;2023-05-16T07:31:13;11.00;;;7.90;;
5199;SDS011;2619;47.868;11.892;2023-05-16T07:33:40;9.83;;;7.40;;
5199;SDS011;2619;47.868;11.892;2023-05-16T07:36:06;12.30;;;8.90;;
5199;SDS011;2619;47.868;11.892;2023-05-16T07:38:32;15.77;;;8.90;;
5199;SDS011;2619;47.868;11.892;2023-05-16T07:40:57;12.43;;;9.00;;
5199;SDS011;2619;47.868;11.892;2023-05-16T07:43:23;12.63;;;9.07;;
5199;SDS011;2619;47.868;11.892;2023-05-16T07:45:48;11.10;;;8.40;;
5199;SDS011;2619;47.868;11.892;2023-05-16T07:48:14;12.07;;;7.87;;
5199;SDS011;2619;47.868;11.892;2023-05-16T07:50:41;12.60;;;8.33;;
5199;SDS011;2619;47.868;11.892;2023-05-16T07:53:07;13.43;;;8.30;;
5199;SDS011;2619;47.868;11.892;2023-05-16T07:55:33;9.83;;;8.10;;
5199;SDS011;2619;47.868;11.892;2023-05-16T07:57:59;13.70;;;9.43;;
5199;SDS011;2619;47.868;11.892;2023-05-16T08:00:25;12.33;;;8.70;;
5199;SDS011;2619;47.868;11.892;2023-05-16T08:02:50;10.50;;;8.67;;
5199;SDS011;2619;47.868;11.892;2023-05-16T08:05:16;9.77;;;8.77;;
5199;SDS011;2619;47.868;11.892;2023-05-16T08:07:41;13.27;;;8.47;;
5199;SDS011;2619;47.868;11.892;2023-05-16T08:10:07;9.60;;;7.80;;
5199;SDS011;2619;47.868;11.892;2023-05-16T08:12:33;9.90;;;7.47;;
5199;SDS011;2619;47.868;11.892;2023-05-16T08:14:59;8.30;;;7.40;;
5199;SDS011;2619;47.868;11.892;2023-05-16T08:17:24;8.87;;;7.97;;
5199;SDS011;2619;47.868;11.892;2023-05-16T08:19:50;9.77;;;7.83;;
5199;SDS011;2619;47.868;11.892;2023-05-16T08:22:15;10.90;;;8.43;;
5199;SDS011;2619;47.868;11.892;2023-05-16T08:24:41;10.10;;;7.80;;
5199;SDS011;2619;47.868;11.892;2023-05-16T08:27:06;9.07;;;8.10;;
5199;SDS011;2619;47.868;11.892;2023-05-16T08:29:32;12.97;;;8.83;;
5199;SDS011;2619;47.868;11.892;2023-05-16T08:31:58;10.87;;;8.30;;
5199;SDS011;2619;47.868;11.892;2023-05-16T08:34:24;9.90;;;8.90;;
5199;SDS011;2619;47.868;11.892;2023-05-16T08:36:49;13.10;;;8.97;;
5199;SDS011;2619;47.868;11.892;2023-05-16T08:39:15;10.10;;;8.00;;
5199;SDS011;2619;47.868;11.892;2023-05-16T08:41:40;10.60;;;8.70;;
5199;SDS011;2619;47.868;11.892;2023-05-16T08:44:06;10.03;;;9.03;;
5199;SDS011;2619;47.868;11.892;2023-05-16T08:46:32;11.23;;;8.97;;
5199;SDS011;2619;47.868;11.892;2023-05-16T08:48:59;11.70;;;9.37;;
5199;SDS011;2619;47.868;11.892;2023-05-16T08:51:29;10.80;;;9.27;;
5199;SDS011;2619;47.868;11.892;2023-05-16T08:54:05;11.07;;;9.97;;
5199;SDS011;2619;47.868;11.892;2023-05-16T08:56:35;12.20;;;9.70;;
5199;SDS011;2619;47.868;11.892;2023-05-16T08:59:02;18.73;;;10.13;;
5199;SDS011;2619;47.868;11.892;2023-05-16T09:01:29;12.10;;;9.57;;
5199;SDS011;2619;47.868;11.892;2023-05-16T09:03:56;10.50;;;9.40;;
5199;SDS011;2619;47.868;11.892;2023-05-16T09:06:22;11.50;;;9.60;;
5199;SDS011;2619;47.868;11.892;2023-05-16T09:08:48;12.90;;;9.97;;
5199;SDS011;2619;47.868;11.892;2023-05-16T09:11:14;11.23;;;9.93;;
5199;SDS011;2619;47.868;11.892;2023-05-16T09:13:40;11.00;;;9.47;;
5199;SDS011;2619;47.868;11.892;2023-05-16T09:18:36;12.70;;;9.80;;
5199;SDS011;2619;47.868;11.892;2023-05-16T09:21:02;14.57;;;10.20;;
5199;SDS011;2619;47.868;11.892;2023-05-16T09:23:29;13.10;;;10.60;;
5199;SDS011;2619;47.868;11.892;2023-05-16T09:25:56;11.93;;;10.60;;
5199;SDS011;2619;47.868;11.892;2023-05-16T09:28:22;11.13;;;9.90;;
5199;SDS011;2619;47.868;11.892;2023-05-16T09:30:50;13.37;;;10.77;;
5199;SDS011;2619;47.868;11.892;2023-05-16T09:33:18;13.30;;;11.60;;
5199;SDS011;2619;47.868;11.892;2023-05-16T09:35:46;12.00;;;10.10;;
5199;SDS011;2619;47.868;11.892;2023-05-16T09:38:23;11.97;;;10.43;;
5199;SDS011;2619;47.868;11.892;2023-05-16T09:40:50;14.30;;;10.80;;
5199;SDS011;2619;47.868;11.892;2023-05-16T09:43:15;11.30;;;10.20;;
5199;SDS011;2619;47.868;11.892;2023-05-16T09:45:45;12.30;;;10.60;;
5199;SDS011;2619;47.868;11.892;2023-05-16T09:48:12;11.23;;;10.20;;
5199;SDS011;2619;47.868;11.892;2023-05-16T09:50:38;10.90;;;9.80;;
5199;SDS011;2619;47.868;11.892;2023-05-16T09:53:06;14.53;;;10.73;;
5199;SDS011;2619;47.868;11.892;2023-05-16T09:55:31;14.83;;;11.50;;
5199;SDS011;2619;47.868;11.892;2023-05-16T09:57:57;13.33;;;10.73;;
5199;SDS011;2619;47.868;11.892;2023-05-16T10:00:27;13.60;;;11.03;;
5199;SDS011;2619;47.868;11.892;2023-05-16T10:02:56;15.83;;;12.73;;
5199;SDS011;2619;47.868;11.892;2023-05-16T10:05:23;13.33;;;11.90;;
5199;SDS011;2619;47.868;11.892;2023-05-16T10:07:51;16.97;;;13.33;;
5199;SDS011;2619;47.868;11.892;2023-05-16T10:10:20;14.00;;;11.50;;
5199;SDS011;2619;47.868;11.892;2023-05-16T10:12:46;13.40;;;11.07;;
5199;SDS011;2619;47.868;11.892;2023-05-16T10:15:13;12.73;;;11.10;;
5199;SDS011;2619;47.868;11.892;2023-05-16T10:17:40;13.53;;;11.20;;
5199;SDS011;2619;47.868;11.892;2023-05-16T10:20:07;11.70;;;10.50;;
5199;SDS011;2619;47.868;11.892;2023-05-16T10:22:35;16.07;;;12.00;;
5199;SDS011;2619;47.868;11.892;2023-05-16T10:25:07;14.10;;;11.47;;
5199;SDS011;2619;47.868;11.892;2023-05-16T10:28:02;14.17;;;11.83;;
5199;SDS011;2619;47.868;11.892;2023-05-16T10:30:29;14.43;;;12.57;;
5199;SDS011;2619;47.868;11.892;2023-05-16T10:32:57;15.20;;;12.33;;
5199;SDS011;2619;47.868;11.892;2023-05-16T10:35:25;14.13;;;11.00;;
5199;SDS011;2619;47.868;11.892;2023-05-16T10:37:51;14.07;;;12.57;;
5199;SDS011;2619;47.868;11.892;2023-05-16T10:40:17;14.90;;;12.27;;
5199;SDS011;2619;47.868;11.892;2023-05-16T10:42:57;14.53;;;12.57;;
5199;SDS011;2619;47.868;11.892;2023-05-16T10:45:26;15.60;;;13.07;;
5199;SDS011;2619;47.868;11.892;2023-05-16T10:47:52;33.80;;;23.77;;
5199;SDS011;2619;47.868;11.892;2023-05-16T10:53:12;18.37;;;14.10;;
5199;SDS011;2619;47.868;11.892;2023-05-16T11:06:29;16.90;;;13.90;;
5199;SDS011;2619;47.868;11.892;2023-05-16T11:11:39;16.47;;;14.23;;
5199;SDS011;2619;47.868;11.892;2023-05-16T11:19:47;20.10;;;15.30;;
5199;SDS011;2619;47.868;11.892;2023-05-16T11:27:32;28.57;;;18.17;;
5199;SDS011;2619;47.868;11.892;2023-05-16T11:29:59;27.67;;;19.20;;
5199;SDS011;2619;47.868;11.892;2023-05-16T11:32:24;25.13;;;17.87;;
5199;SDS011;2619;47.868;11.892;2023-05-16T11:34:50;26.93;;;18.40;;
5199;SDS011;2619;47.868;11.892;2023-05-16T11:37:17;24.27;;;18.33;;
5199;SDS011;2619;47.868;11.892;2023-05-16T11:39:44;26.43;;;18.87;;
5199;SDS011;2619;47.868;11.892;2023-05-16T11:42:10;26.67;;;20.13;;
5199;SDS011;2619;47.868;11.892;2023-05-16T11:44:37;25.70;;;20.17;;
5199;SDS011;2619;47.868;11.892;2023-05-16T11:47:04;23.80;;;18.60;;
5199;SDS011;2619;47.868;11.892;2023-05-16T11:49:30;27.00;;;20.37;;
5199;SDS011;2619;47.868;11.892;2023-05-16T11:51:55;30.37;;;21.93;;
5199;SDS011;2619;47.868;11.892;2023-05-16T11:54:21;29.27;;;20.90;;
5199;SDS011;2619;47.868;11.892;2023-05-16T11:56:48;30.60;;;22.00;;
5199;SDS011;2619;47.868;11.892;2023-05-16T11:59:17;29.77;;;21.60;;
5199;SDS011;2619;47.868;11.892;2023-05-16T12:01:43;33.73;;;22.10;;
5199;SDS011;2619;47.868;11.892;2023-05-16T12:04:09;35.30;;;21.80;;
5199;SDS011;2619;47.868;11.892;2023-05-16T12:06:36;37.53;;;22.90;;
5199;SDS011;2619;47.868;11.892;2023-05-16T12:09:06;31.07;;;21.53;;
5199;SDS011;2619;47.868;11.892;2023-05-16T12:11:37;30.43;;;20.60;;
5199;SDS011;2619;47.868;11.892;2023-05-16T12:14:04;29.60;;;21.43;;
5199;SDS011;2619;47.868;11.892;2023-05-16T12:16:31;33.07;;;22.13;;
5199;SDS011;2619;47.868;11.892;2023-05-16T12:18:58;27.67;;;19.60;;
5199;SDS011;2619;47.868;11.892;2023-05-16T12:21:26;25.80;;;19.40;;
5199;SDS011;2619;47.868;11.892;2023-05-16T12:23:55;25.10;;;17.67;;
5199;SDS011;2619;47.868;11.892;2023-05-16T12:26:27;28.90;;;19.77;;
5199;SDS011;2619;47.868;11.892;2023-05-16T12:28:58;24.13;;;18.23;;
5199;SDS011;2619;47.868;11.892;2023-05-16T12:31:27;26.10;;;18.80;;
5199;SDS011;2619;47.868;11.892;2023-05-16T12:33:54;31.07;;;21.90;;
5199;SDS011;2619;47.868;11.892;2023-05-16T12:36:20;37.60;;;23.23;;
5199;SDS011;2619;47.868;11.892;2023-05-16T12:38:46;29.07;;;22.13;;
5199;SDS011;2619;47.868;11.892;2023-05-16T12:41:19;32.43;;;22.73;;
5199;SDS011;2619;47.868;11.892;2023-05-16T12:43:45;32.17;;;25.20;;
5199;SDS011;2619;47.868;11.892;2023-05-16T12:46:11;31.63;;;24.10;;
5199;SDS011;2619;47.868;11.892;2023-05-16T12:48:37;37.50;;;24.30;;
5199;SDS011;2619;47.868;11.892;2023-05-16T12:51:12;36.90;;;25.20;;
5199;SDS011;2619;47.868;11.892;2023-05-16T12:53:46;34.40;;;24.77;;
5199;SDS011;2619;47.868;11.892;2023-05-16T12:56:13;37.10;;;25.40;;
5199;SDS011;2619;47.868;11.892;2023-05-16T12:58:39;37.17;;;25.90;;
5199;SDS011;2619;47.868;11.892;2023-05-16T13:01:06;32.00;;;24.67;;
5199;SDS011;2619;47.868;11.892;2023-05-16T13:03:32;34.87;;;24.47;;
5199;SDS011;2619;47.868;11.892;2023-05-16T13:05:59;31.57;;;22.67;;
5199;SDS011;2619;47.868;11.892;2023-05-16T13:08:25;37.83;;;24.50;;
5199;SDS011;2619;47.868;11.892;2023-05-16T13:10:51;30.37;;;23.60;;
5199;SDS011;2619;47.868;11.892;2023-05-16T13:13:17;30.57;;;24.13;;
5199;SDS011;2619;47.868;11.892;2023-05-16T13:15:46;28.97;;;22.80;;
5199;SDS011;2619;47.868;11.892;2023-05-16T13:18:12;37.70;;;23.37;;
5199;SDS011;2619;47.868;11.892;2023-05-16T13:20:38;27.57;;;23.00;;
5199;SDS011;2619;47.868;11.892;2023-05-16T13:23:04;30.97;;;22.43;;
5199;SDS011;2619;47.868;11.892;2023-05-16T13:25:30;26.93;;;20.60;;
5199;SDS011;2619;47.868;11.892;2023-05-16T13:27:56;27.63;;;22.97;;
5199;SDS011;2619;47.868;11.892;2023-05-16T13:30:21;23.70;;;20.00;;
5199;SDS011;2619;47.868;11.892;2023-05-16T13:32:48;22.50;;;19.20;;
5199;SDS011;2619;47.868;11.892;2023-05-16T13:35:14;27.30;;;20.60;;
5199;SDS011;2619;47.868;11.892;2023-05-16T13:37:40;29.77;;;23.70;;
5199;SDS011;2619;47.868;11.892;2023-05-16T13:40:05;29.83;;;22.37;;
5199;SDS011;2619;47.868;11.892;2023-05-16T13:42:34;38.00;;;23.83;;
5199;SDS011;2619;47.868;11.892;2023-05-16T13:45:01;31.00;;;24.23;;
5199;SDS011;2619;47.868;11.892;2023-05-16T13:47:27;32.93;;;23.50;;
5199;SDS011;2619;47.868;11.892;2023-05-16T13:49:52;35.00;;;23.27;;
5199;SDS011;2619;47.868;11.892;2023-05-16T13:52:18;32.70;;;23.37;;
5199;SDS011;2619;47.868;11.892;2023-05-16T13:54:44;33.57;;;23.90;;
5199;SDS011;2619;47.868;11.892;2023-05-16T13:57:09;24.83;;;20.53;;
5199;SDS011;2619;47.868;11.892;2023-05-16T13:59:35;28.70;;;20.80;;
5199;SDS011;2619;47.868;11.892;2023-05-16T14:02:01;27.30;;;21.37;;
5199;SDS011;2619;47.868;11.892;2023-05-16T14:04:26;34.47;;;21.63;;
5199;SDS011;2619;47.868;11.892;2023-05-16T14:06:52;25.80;;;20.13;;
5199;SDS011;2619;47.868;11.892;2023-05-16T14:09:19;20.40;;;17.87;;
5199;SDS011;2619;47.868;11.892;2023-05-16T14:11:44;20.10;;;15.90;;
5199;SDS011;2619;47.868;11.892;2023-05-16T14:14:10;18.90;;;15.50;;
5199;SDS011;2619;47.868;11.892;2023-05-16T14:16:35;17.13;;;14.90;;
5199;SDS011;2619;47.868;11.892;2023-05-16T14:19:01;18.87;;;14.30;;
5199;SDS011;2619;47.868;11.892;2023-05-16T14:21:27;17.97;;;13.80;;
5199;SDS011;2619;47.868;11.892;2023-05-16T14:23:52;17.87;;;13.60;;
5199;SDS011;2619;47.868;11.892;2023-05-16T14:26:18;15.70;;;14.03;;
5199;SDS011;2619;47.868;11.892;2023-05-16T14:28:49;17.33;;;13.93;;
5199;SDS011;2619;47.868;11.892;2023-05-16T14:31:15;17.43;;;14.40;;
5199;SDS011;2619;47.868;11.892;2023-05-16T14:33:40;18.73;;;14.80;;
5199;SDS011;2619;47.868;11.892;2023-05-16T14:36:07;17.93;;;13.10;;
5199;SDS011;2619;47.868;11.892;2023-05-16T14:38:33;15.50;;;13.03;;
5199;SDS011;2619;47.868;11.892;2023-05-16T14:40:59;16.30;;;13.00;;
5199;SDS011;2619;47.868;11.892;2023-05-16T14:43:25;13.90;;;12.30;;
5199;SDS011;2619;47.868;11.892;2023-05-16T14:45:50;17.23;;;12.80;;
5199;SDS011;2619;47.868;11.892;2023-05-16T14:48:16;18.57;;;14.90;;
5199;SDS011;2619;47.868;11.892;2023-05-16T14:50:42;18.63;;;16.27;;
5199;SDS011;2619;47.868;11.892;2023-05-16T14:53:07;22.93;;;15.40;;
5199;SDS011;2619;47.868;11.892;2023-05-16T14:55:33;20.13;;;15.53;;
5199;SDS011;2619;47.868;11.892;2023-05-16T14:57:58;24.67;;;17.83;;
5199;SDS011;2619;47.868;11.892;2023-05-16T15:00:24;18.70;;;15.90;;
5199;SDS011;2619;47.868;11.892;2023-05-16T15:02:50;13.63;;;11.00;;
5199;SDS011;2619;47.868;11.892;2023-05-16T15:05:16;12.00;;;10.40;;
5199;SDS011;2619;47.868;11.892;2023-05-16T15:07:42;11.20;;;9.57;;
5199;SDS011;2619;47.868;11.892;2023-05-16T15:10:08;16.13;;;9.80;;
5199;SDS011;2619;47.868;11.892;2023-05-16T15:12:34;10.77;;;8.53;;
5199;SDS011;2619;47.868;11.892;2023-05-16T15:15:00;11.47;;;8.37;;
5199;SDS011;2619;47.868;11.892;2023-05-16T15:17:26;11.30;;;8.83;;
5199;SDS011;2619;47.868;11.892;2023-05-16T15:19:52;11.77;;;9.00;;
5199;SDS011;2619;47.868;11.892;2023-05-16T15:22:18;10.83;;;8.70;;